Morton S. Bouchard Jr. — WDI5331 — position and weather

sailwx.info

Track history (hours):
 
Tides and Currents Weather Stations Pressure Air Temp Water Temp Dewpoint Dewpoint Depression Visibility Wind Speed Wind Dir Waves Ship Positions

Morton S. Bouchard Jr.

Owner: Tug Morton S. Bouchard Jr. Corp., Melville, NY. More information available from US FCC via Universal Licensing System and Coast Guard Vessel Documentation Center.

Last reported at 2017-Oct-17 06:00 UTC. Time now 2017-Oct-17 06:09 UTC.
Position N 39°32' W 075°33'.

Length 156 m.

MMSI: 367707480.

Date/timePositionNaut miles runAvg speedWind from/ knotsBaromVisibWave heightAir tempDewpointWater temp
2017-Oct-17 06:00N 39°32' W 075°33'5 9.5
2017-Oct-17 05:30N 39°37' W 075°35'510.5
2017-Oct-17 05:01N 39°41' W 075°31'5 9.9
2017-Oct-17 04:30N 39°46' W 075°29'5 9.1
2017-Oct-17 04:00N 39°49' W 075°24'4 8.4
2017-Oct-17 03:31N 39°51' W 075°20'4 8.2
2017-Oct-17 03:00N 39°51' W 075°14'3 5.6
2017-Oct-17 02:31N 39°54' W 075°12'0 0.2
2017-Oct-17 02:01N 39°54' W 075°12'0 0.0
2017-Oct-17 01:30N 39°54' W 075°12'0 0.0
2017-Oct-17 01:01N 39°54' W 075°12'0 0.0
2017-Oct-17 00:31N 39°54' W 075°12'0 0.0
2017-Oct-16 23:57N 39°54' W 075°12'0 0.0
2017-Oct-16 23:15N 39°54' W 075°12'0 0.0
2017-Oct-16 22:48N 39°54' W 075°12'0 0.0
2017-Oct-16 22:30N 39°54' W 075°12'0 0.0
2017-Oct-16 21:48N 39°54' W 075°12'0 0.0
2017-Oct-16 20:39N 39°54' W 075°12'0 0.0
2017-Oct-16 20:27N 39°54' W 075°12'0 0.0
2017-Oct-16 19:51N 39°54' W 075°12'0 0.0
2017-Oct-16 19:27N 39°54' W 075°12'0 0.0
2017-Oct-16 19:00N 39°54' W 075°12'0 0.0
2017-Oct-16 18:30N 39°54' W 075°12'0 0.0
2017-Oct-16 17:54N 39°54' W 075°12'0 0.0
2017-Oct-16 17:30N 39°54' W 075°12'0 0.2
2017-Oct-16 16:59N 39°54' W 075°12'0 0.0
2017-Oct-16 16:29N 39°54' W 075°12'0 0.0
2017-Oct-16 15:59N 39°54' W 075°12'0 0.0
2017-Oct-16 15:29N 39°54' W 075°12'0 0.0
2017-Oct-16 14:59N 39°54' W 075°12'0 0.0
2017-Oct-16 13:59N 39°54' W 075°12'0 0.0
2017-Oct-16 13:29N 39°54' W 075°12'0 0.0
2017-Oct-16 12:59N 39°54' W 075°12'0 0.0
2017-Oct-16 12:26N 39°54' W 075°12'0 0.0
2017-Oct-16 11:56N 39°54' W 075°12'0 0.0
2017-Oct-16 11:29N 39°54' W 075°12'0 0.0
2017-Oct-16 10:59N 39°54' W 075°12'0 0.0
2017-Oct-16 10:26N 39°54' W 075°12'0 0.0
2017-Oct-16 09:56N 39°54' W 075°12'0 0.0
2017-Oct-16 09:26N 39°54' W 075°12'0 0.0
2017-Oct-16 08:50N 39°54' W 075°12'0 0.0
2017-Oct-16 08:29N 39°54' W 075°12'0 0.0
2017-Oct-16 07:59N 39°54' W 075°12'0 0.0
2017-Oct-16 07:26N 39°54' W 075°12'0 0.0
2017-Oct-16 06:59N 39°54' W 075°12'0 0.0
2017-Oct-16 06:29N 39°54' W 075°12'0 0.0
2017-Oct-16 05:56N 39°54' W 075°12'0 0.0
2017-Oct-16 05:26N 39°54' W 075°12'0 0.0
2017-Oct-16 04:50N 39°54' W 075°12'0 0.0
2017-Oct-16 04:29N 39°54' W 075°12'0 0.0
2017-Oct-16 03:59N 39°54' W 075°12'0 0.0
2017-Oct-16 03:23N 39°54' W 075°12'0 0.0
2017-Oct-16 02:59N 39°54' W 075°12'0 0.0
2017-Oct-16 02:26N 39°54' W 075°12'0 0.0
2017-Oct-16 01:56N 39°54' W 075°12'0 0.0
2017-Oct-16 01:29N 39°54' W 075°12'0 0.0
2017-Oct-16 00:56N 39°54' W 075°12'0 0.0
2017-Oct-16 00:29N 39°54' W 075°12'0 0.0
2017-Oct-15 23:59N 39°54' W 075°12'0 0.0
2017-Oct-15 23:20N 39°54' W 075°12'0 0.0
2017-Oct-15 22:50N 39°54' W 075°12'0 0.0
2017-Oct-15 22:29N 39°54' W 075°12'0 0.0
2017-Oct-15 21:56N 39°54' W 075°12'0 0.0
2017-Oct-15 21:29N 39°54' W 075°12'0 0.0
2017-Oct-15 20:59N 39°54' W 075°12'0 0.0
2017-Oct-15 20:29N 39°54' W 075°12'0 0.0
2017-Oct-15 19:56N 39°54' W 075°12'0 0.0
2017-Oct-15 19:29N 39°54' W 075°12'0 0.0
2017-Oct-15 18:56N 39°54' W 075°12'0 0.0
2017-Oct-15 18:29N 39°54' W 075°12'0 0.0
2017-Oct-15 17:59N 39°54' W 075°12'0 0.0
2017-Oct-15 17:29N 39°54' W 075°12'0 0.0
2017-Oct-15 17:00N 39°54' W 075°12'0 0.2
2017-Oct-15 16:30N 39°54' W 075°12'0 0.0
2017-Oct-15 15:54N 39°54' W 075°12'0 0.0
2017-Oct-15 15:28N 39°54' W 075°12'0 0.0
2017-Oct-15 15:00N 39°54' W 075°12'1 1.4
2017-Oct-15 14:00N 39°52' W 075°13'0 0.3
2017-Oct-15 13:31N 39°52' W 075°12'0 0.0
2017-Oct-15 13:00N 39°52' W 075°12'0 0.0
2017-Oct-15 12:30N 39°52' W 075°12'0 0.0
2017-Oct-15 11:58N 39°52' W 075°12'0 0.0
2017-Oct-15 11:31N 39°52' W 075°12'0 0.0
2017-Oct-15 11:00N 39°52' W 075°12'0 0.0
2017-Oct-15 10:30N 39°52' W 075°12'0 0.3
2017-Oct-15 09:58N 39°52' W 075°12'0 0.1
2017-Oct-15 09:30N 39°52' W 075°13'0 0.1
2017-Oct-15 09:00N 39°52' W 075°13'0 0.0
2017-Oct-15 08:30N 39°52' W 075°13'0 0.0
2017-Oct-15 08:00N 39°52' W 075°13'0 0.0
2017-Oct-15 07:30N 39°52' W 075°13'0 0.0
2017-Oct-15 07:01N 39°52' W 075°13'0 0.0
2017-Oct-15 06:31N 39°52' W 075°13'0 0.0
2017-Oct-15 05:58N 39°52' W 075°13'0 0.0
2017-Oct-15 05:30N 39°52' W 075°13'0 0.0
2017-Oct-15 04:58N 39°52' W 075°13'0 0.0
2017-Oct-15 04:30N 39°52' W 075°13'0 0.0
2017-Oct-15 04:00N 39°52' W 075°13'0 0.3
2017-Oct-15 03:31N 39°52' W 075°12'0 0.1
2017-Oct-15 02:58N 39°52' W 075°12'0 0.0
2017-Oct-15 02:30N 39°52' W 075°12'0 0.0
2017-Oct-15 02:00N 39°52' W 075°12'0 0.0
2017-Oct-15 01:30N 39°52' W 075°12'0 0.0
2017-Oct-15 00:57N 39°52' W 075°12'0 0.0
2017-Oct-15 00:30N 39°52' W 075°12'0 0.0
2017-Oct-15 00:00N 39°52' W 075°12'0 0.0
2017-Oct-14 23:30N 39°52' W 075°12'0 0.0
2017-Oct-14 23:01N 39°52' W 075°12'0 0.0
2017-Oct-14 22:31N 39°52' W 075°12'0 0.1
2017-Oct-14 22:00N 39°52' W 075°12'0 0.1
2017-Oct-14 21:31N 39°52' W 075°12'0 0.2
2017-Oct-14 21:01N 39°52' W 075°13'0 0.1
2017-Oct-14 20:30N 39°52' W 075°13'0 0.1
2017-Oct-14 20:01N 39°52' W 075°13'0 0.0
2017-Oct-14 19:30N 39°52' W 075°13'0 0.0
2017-Oct-14 19:00N 39°52' W 075°13'0 0.0
2017-Oct-14 18:31N 39°52' W 075°13'0 0.0
2017-Oct-14 18:00N 39°52' W 075°13'2 4.3
2017-Oct-14 17:31N 39°51' W 075°15'4 8.3
2017-Oct-14 17:00N 39°51' W 075°20'4 8.0
2017-Oct-14 16:31N 39°49' W 075°25'4 8.2
2017-Oct-14 16:00N 39°46' W 075°29'4 8.4
2017-Oct-14 15:30N 39°42' W 075°31'4 8.5
2017-Oct-14 15:01N 39°38' W 075°34'4 7.9
2017-Oct-14 14:31N 39°34' W 075°33'4 8.7
2017-Oct-14 14:00N 39°30' W 075°33'4 8.6
2017-Oct-14 13:30N 39°26' W 075°32'5 9.6
2017-Oct-14 13:00N 39°22' W 075°28'5 9.8
2017-Oct-14 12:30N 39°19' W 075°24'510.0
2017-Oct-14 12:01N 39°15' W 075°19'510.0
2017-Oct-14 11:30N 39°11' W 075°16'510.1
2017-Oct-14 11:00N 39°06' W 075°12'610.0
2017-Oct-14 10:26N 39°01' W 075°09'63 7.3
2017-Oct-14 01:52N 39°32' W 073°58'222 9.1
2017-Oct-13 01:21N 42°16' W 070°39'3 9.8
2017-Oct-13 01:00N 42°18' W 070°42'5 9.8
2017-Oct-13 00:30N 42°22' W 070°47'5 9.5
2017-Oct-13 00:00N 42°23' W 070°54'5 9.7
2017-Oct-12 23:30N 42°20' W 070°59'4 7.2
2017-Oct-12 23:00N 42°22' W 071°03'2 3.0
2017-Oct-12 22:30N 42°23' W 071°01'0 0.7
2017-Oct-12 22:00N 42°24' W 071°01'0 0.0
2017-Oct-12 12:09N 42°24' W 071°01'0 0.0
2017-Oct-12 12:00N 42°24' W 071°01'0 0.0
2017-Oct-12 11:30N 42°24' W 071°01'0 0.6
2017-Oct-12 11:00N 42°24' W 071°01'0 0.0
2017-Oct-11 22:04N 42°24' W 071°01'0 0.0
2017-Oct-11 22:00N 42°24' W 071°01'0 0.0
2017-Oct-11 21:30N 42°24' W 071°01'0 0.0
2017-Oct-11 21:00N 42°24' W 071°01'0 0.0
2017-Oct-11 20:30N 42°24' W 071°01'0 0.3
2017-Oct-11 20:00N 42°24' W 071°01'1 2.5
2017-Oct-11 19:30N 42°23' W 071°02'2 3.4
2017-Oct-11 19:00N 42°21' W 071°02'0 0.1
2017-Oct-11 18:30N 42°22' W 071°02'0 0.0
2017-Oct-11 18:00N 42°22' W 071°02'0 0.1
2017-Oct-11 17:30N 42°21' W 071°02'0 0.0
2017-Oct-11 17:00N 42°21' W 071°02'100 5.9
2017-Oct-11 00:00N 41°08' W 072°33'5910.4
2017-Oct-10 18:21N 40°49' W 073°47'3 7.8
2017-Oct-10 18:00N 40°48' W 073°50'4 8.6
2017-Oct-10 17:30N 40°47' W 073°56'3 7.2
2017-Oct-10 17:00N 40°44' W 073°58'4 7.8
2017-Oct-10 16:30N 40°41' W 074°01'3 6.5
2017-Oct-10 16:00N 40°39' W 074°05'0 0.3
2017-Oct-10 15:30N 40°39' W 074°05'0 0.0
2017-Oct-10 14:37N 40°39' W 074°05'1 0.3
2017-Oct-10 11:47N 40°39' W 074°06'0 0.0
2017-Oct-10 10:41N 40°39' W 074°06'0 0.0
2017-Oct-10 10:11N 40°39' W 074°06'0 0.0
2017-Oct-10 09:50N 40°39' W 074°06'1 2.5
2017-Oct-10 09:30N 40°39' W 074°07'0 0.0
2017-Oct-09 06:02N 40°39' W 074°07'0 0.0
2017-Oct-09 06:00N 40°39' W 074°07'0 0.0
2017-Oct-09 05:30N 40°39' W 074°07'0 0.0
2017-Oct-09 04:54N 40°39' W 074°07'0 0.0
2017-Oct-09 04:28N 40°39' W 074°07'0 0.0
2017-Oct-09 04:00N 40°39' W 074°07'1 2.8
2017-Oct-09 03:30N 40°39' W 074°05'0 0.8
2017-Oct-09 03:00N 40°39' W 074°05'0 0.0
2017-Oct-09 02:30N 40°39' W 074°05'1 1.9
2017-Oct-09 02:00N 40°39' W 074°04'1 2.2
2017-Oct-09 01:30N 40°40' W 074°03'0 0.1
2017-Oct-09 01:00N 40°40' W 074°03'0 0.0
2017-Oct-09 00:30N 40°40' W 074°03'0 0.2
2017-Oct-09 00:00N 40°40' W 074°03'0 0.1
2017-Oct-08 23:30N 40°40' W 074°03'0 0.1
2017-Oct-08 23:00N 40°40' W 074°03'0 0.0
2017-Oct-08 22:30N 40°40' W 074°03'0 0.0
2017-Oct-08 22:00N 40°40' W 074°03'0 0.0
2017-Oct-08 21:30N 40°40' W 074°03'0 0.7
2017-Oct-08 21:00N 40°39' W 074°03'1 1.7
2017-Oct-08 20:30N 40°39' W 074°04'1 2.0
2017-Oct-08 19:56N 40°39' W 074°03'0 0.1
2017-Oct-08 19:29N 40°40' W 074°03'0 0.1
2017-Oct-08 18:59N 40°40' W 074°03'0 0.0
2017-Oct-08 18:29N 40°40' W 074°03'0 0.0
2017-Oct-08 17:56N 40°40' W 074°03'0 0.3
2017-Oct-08 17:29N 40°40' W 074°03'0 0.2
2017-Oct-08 16:59N 40°40' W 074°03'0 0.0
2017-Oct-08 16:30N 40°40' W 074°03'0 0.0
2017-Oct-08 16:00N 40°40' W 074°03'0 0.0
2017-Oct-08 15:30N 40°40' W 074°03'0 0.0
2017-Oct-08 15:00N 40°40' W 074°03'0 0.0
2017-Oct-08 14:30N 40°40' W 074°03'0 0.0
2017-Oct-08 14:00N 40°40' W 074°03'0 0.1
2017-Oct-08 13:30N 40°40' W 074°03'0 0.0
2017-Oct-08 13:00N 40°40' W 074°03'0 0.1
2017-Oct-08 12:30N 40°40' W 074°03'1 2.0
2017-Oct-08 12:00N 40°39' W 074°04'3 6.0
2017-Oct-08 11:30N 40°39' W 074°08'3 6.2
2017-Oct-08 11:00N 40°38' W 074°12'3 0.2
2017-Oct-07 16:14N 40°35' W 074°12'0 0.0
2017-Oct-07 16:00N 40°35' W 074°12'0 0.0
2017-Oct-07 15:28N 40°35' W 074°12'0 0.3
2017-Oct-07 14:56N 40°35' W 074°12'2 4.5
2017-Oct-07 14:29N 40°33' W 074°14'4 3.9
2017-Oct-07 13:27N 40°30' W 074°10'510.2
2017-Oct-07 13:00N 40°29' W 074°04'4 7.7
2017-Oct-07 12:30N 40°29' W 073°59'4 7.2
2017-Oct-07 11:54N 40°26' W 073°55'3 6.9
2017-Oct-07 11:28N 40°23' W 073°54'9 6.9
2017-Oct-07 10:11N 40°14' W 073°55'2 6.7
2017-Oct-07 09:56N 40°12' W 073°55'3 6.7
2017-Oct-07 09:30N 40°10' W 073°55'4 7.1
2017-Oct-07 08:57N 40°06' W 073°56'3 6.1
2017-Oct-07 08:30N 40°03' W 073°56'510.3
2017-Oct-07 08:00N 39°58' W 073°57'610.3
2017-Oct-07 07:26N 39°52' W 073°58'410.2
2017-Oct-07 07:00N 39°48' W 073°58'510.2
2017-Oct-07 06:30N 39°43' W 074°00'  
Track history (hours):
 
Tides and Currents Weather Stations Pressure Air Temp Water Temp Dewpoint Dewpoint Depression Visibility Wind Speed Wind Dir Waves Ship Positions

Morton S. Bouchard Jr.

Owner: Tug Morton S. Bouchard Jr. Corp., Melville, NY. More information available from US FCC via Universal Licensing System and Coast Guard Vessel Documentation Center.

Last reported at 2017-Oct-17 06:00 UTC. Time now 2017-Oct-17 06:09 UTC.
Position N 39°32' W 075°33'.

Length 156 m.

MMSI: 367707480.

Date/timePositionNaut miles runAvg speedWind from/ knotsBaromVisibWave heightAir tempDewpointWater temp
2017-Oct-17 06:00N 39°32' W 075°33'5 9.5
2017-Oct-17 05:30N 39°37' W 075°35'510.5
2017-Oct-17 05:01N 39°41' W 075°31'5 9.9
2017-Oct-17 04:30N 39°46' W 075°29'5 9.1
2017-Oct-17 04:00N 39°49' W 075°24'4 8.4
2017-Oct-17 03:31N 39°51' W 075°20'4 8.2
2017-Oct-17 03:00N 39°51' W 075°14'3 5.6
2017-Oct-17 02:31N 39°54' W 075°12'0 0.2
2017-Oct-17 02:01N 39°54' W 075°12'0 0.0
2017-Oct-17 01:30N 39°54' W 075°12'0 0.0
2017-Oct-17 01:01N 39°54' W 075°12'0 0.0
2017-Oct-17 00:31N 39°54' W 075°12'0 0.0
2017-Oct-16 23:57N 39°54' W 075°12'0 0.0
2017-Oct-16 23:15N 39°54' W 075°12'0 0.0
2017-Oct-16 22:48N 39°54' W 075°12'0 0.0
2017-Oct-16 22:30N 39°54' W 075°12'0 0.0
2017-Oct-16 21:48N 39°54' W 075°12'0 0.0
2017-Oct-16 20:39N 39°54' W 075°12'0 0.0
2017-Oct-16 20:27N 39°54' W 075°12'0 0.0
2017-Oct-16 19:51N 39°54' W 075°12'0 0.0
2017-Oct-16 19:27N 39°54' W 075°12'0 0.0
2017-Oct-16 19:00N 39°54' W 075°12'0 0.0
2017-Oct-16 18:30N 39°54' W 075°12'0 0.0
2017-Oct-16 17:54N 39°54' W 075°12'0 0.0
2017-Oct-16 17:30N 39°54' W 075°12'0 0.2
2017-Oct-16 16:59N 39°54' W 075°12'0 0.0
2017-Oct-16 16:29N 39°54' W 075°12'0 0.0
2017-Oct-16 15:59N 39°54' W 075°12'0 0.0
2017-Oct-16 15:29N 39°54' W 075°12'0 0.0
2017-Oct-16 14:59N 39°54' W 075°12'0 0.0
2017-Oct-16 13:59N 39°54' W 075°12'0 0.0
2017-Oct-16 13:29N 39°54' W 075°12'0 0.0
2017-Oct-16 12:59N 39°54' W 075°12'0 0.0
2017-Oct-16 12:26N 39°54' W 075°12'0 0.0
2017-Oct-16 11:56N 39°54' W 075°12'0 0.0
2017-Oct-16 11:29N 39°54' W 075°12'0 0.0
2017-Oct-16 10:59N 39°54' W 075°12'0 0.0
2017-Oct-16 10:26N 39°54' W 075°12'0 0.0
2017-Oct-16 09:56N 39°54' W 075°12'0 0.0
2017-Oct-16 09:26N 39°54' W 075°12'0 0.0
2017-Oct-16 08:50N 39°54' W 075°12'0 0.0
2017-Oct-16 08:29N 39°54' W 075°12'0 0.0
2017-Oct-16 07:59N 39°54' W 075°12'0 0.0
2017-Oct-16 07:26N 39°54' W 075°12'0 0.0
2017-Oct-16 06:59N 39°54' W 075°12'0 0.0
2017-Oct-16 06:29N 39°54' W 075°12'0 0.0
2017-Oct-16 05:56N 39°54' W 075°12'0 0.0
2017-Oct-16 05:26N 39°54' W 075°12'0 0.0
2017-Oct-16 04:50N 39°54' W 075°12'0 0.0
2017-Oct-16 04:29N 39°54' W 075°12'0 0.0
2017-Oct-16 03:59N 39°54' W 075°12'0 0.0
2017-Oct-16 03:23N 39°54' W 075°12'0 0.0
2017-Oct-16 02:59N 39°54' W 075°12'0 0.0
2017-Oct-16 02:26N 39°54' W 075°12'0 0.0
2017-Oct-16 01:56N 39°54' W 075°12'0 0.0
2017-Oct-16 01:29N 39°54' W 075°12'0 0.0
2017-Oct-16 00:56N 39°54' W 075°12'0 0.0
2017-Oct-16 00:29N 39°54' W 075°12'0 0.0
2017-Oct-15 23:59N 39°54' W 075°12'0 0.0
2017-Oct-15 23:20N 39°54' W 075°12'0 0.0
2017-Oct-15 22:50N 39°54' W 075°12'0 0.0
2017-Oct-15 22:29N 39°54' W 075°12'0 0.0
2017-Oct-15 21:56N 39°54' W 075°12'0 0.0
2017-Oct-15 21:29N 39°54' W 075°12'0 0.0
2017-Oct-15 20:59N 39°54' W 075°12'0 0.0
2017-Oct-15 20:29N 39°54' W 075°12'0 0.0
2017-Oct-15 19:56N 39°54' W 075°12'0 0.0
2017-Oct-15 19:29N 39°54' W 075°12'0 0.0
2017-Oct-15 18:56N 39°54' W 075°12'0 0.0
2017-Oct-15 18:29N 39°54' W 075°12'0 0.0
2017-Oct-15 17:59N 39°54' W 075°12'0 0.0
2017-Oct-15 17:29N 39°54' W 075°12'0 0.0
2017-Oct-15 17:00N 39°54' W 075°12'0 0.2
2017-Oct-15 16:30N 39°54' W 075°12'0 0.0
2017-Oct-15 15:54N 39°54' W 075°12'0 0.0
2017-Oct-15 15:28N 39°54' W 075°12'0 0.0
2017-Oct-15 15:00N 39°54' W 075°12'1 1.4
2017-Oct-15 14:00N 39°52' W 075°13'0 0.3
2017-Oct-15 13:31N 39°52' W 075°12'0 0.0
2017-Oct-15 13:00N 39°52' W 075°12'0 0.0
2017-Oct-15 12:30N 39°52' W 075°12'0 0.0
2017-Oct-15 11:58N 39°52' W 075°12'0 0.0
2017-Oct-15 11:31N 39°52' W 075°12'0 0.0
2017-Oct-15 11:00N 39°52' W 075°12'0 0.0
2017-Oct-15 10:30N 39°52' W 075°12'0 0.3
2017-Oct-15 09:58N 39°52' W 075°12'0 0.1
2017-Oct-15 09:30N 39°52' W 075°13'0 0.1
2017-Oct-15 09:00N 39°52' W 075°13'0 0.0
2017-Oct-15 08:30N 39°52' W 075°13'0 0.0
2017-Oct-15 08:00N 39°52' W 075°13'0 0.0
2017-Oct-15 07:30N 39°52' W 075°13'0 0.0
2017-Oct-15 07:01N 39°52' W 075°13'0 0.0
2017-Oct-15 06:31N 39°52' W 075°13'0 0.0
2017-Oct-15 05:58N 39°52' W 075°13'0 0.0
2017-Oct-15 05:30N 39°52' W 075°13'0 0.0
2017-Oct-15 04:58N 39°52' W 075°13'0 0.0
2017-Oct-15 04:30N 39°52' W 075°13'0 0.0
2017-Oct-15 04:00N 39°52' W 075°13'0 0.3
2017-Oct-15 03:31N 39°52' W 075°12'0 0.1
2017-Oct-15 02:58N 39°52' W 075°12'0 0.0
2017-Oct-15 02:30N 39°52' W 075°12'0 0.0
2017-Oct-15 02:00N 39°52' W 075°12'0 0.0
2017-Oct-15 01:30N 39°52' W 075°12'0 0.0
2017-Oct-15 00:57N 39°52' W 075°12'0 0.0
2017-Oct-15 00:30N 39°52' W 075°12'0 0.0
2017-Oct-15 00:00N 39°52' W 075°12'0 0.0
2017-Oct-14 23:30N 39°52' W 075°12'0 0.0
2017-Oct-14 23:01N 39°52' W 075°12'0 0.0
2017-Oct-14 22:31N 39°52' W 075°12'0 0.1
2017-Oct-14 22:00N 39°52' W 075°12'0 0.1
2017-Oct-14 21:31N 39°52' W 075°12'0 0.2
2017-Oct-14 21:01N 39°52' W 075°13'0 0.1
2017-Oct-14 20:30N 39°52' W 075°13'0 0.1
2017-Oct-14 20:01N 39°52' W 075°13'0 0.0
2017-Oct-14 19:30N 39°52' W 075°13'0 0.0
2017-Oct-14 19:00N 39°52' W 075°13'0 0.0
2017-Oct-14 18:31N 39°52' W 075°13'0 0.0
2017-Oct-14 18:00N 39°52' W 075°13'2 4.3
2017-Oct-14 17:31N 39°51' W 075°15'4 8.3
2017-Oct-14 17:00N 39°51' W 075°20'4 8.0
2017-Oct-14 16:31N 39°49' W 075°25'4 8.2
2017-Oct-14 16:00N 39°46' W 075°29'4 8.4
2017-Oct-14 15:30N 39°42' W 075°31'4 8.5
2017-Oct-14 15:01N 39°38' W 075°34'4 7.9
2017-Oct-14 14:31N 39°34' W 075°33'4 8.7
2017-Oct-14 14:00N 39°30' W 075°33'4 8.6
2017-Oct-14 13:30N 39°26' W 075°32'5 9.6
2017-Oct-14 13:00N 39°22' W 075°28'5 9.8
2017-Oct-14 12:30N 39°19' W 075°24'510.0
2017-Oct-14 12:01N 39°15' W 075°19'510.0
2017-Oct-14 11:30N 39°11' W 075°16'510.1
2017-Oct-14 11:00N 39°06' W 075°12'610.0
2017-Oct-14 10:26N 39°01' W 075°09'63 7.3
2017-Oct-14 01:52N 39°32' W 073°58'222 9.1
2017-Oct-13 01:21N 42°16' W 070°39'3 9.8
2017-Oct-13 01:00N 42°18' W 070°42'5 9.8
2017-Oct-13 00:30N 42°22' W 070°47'5 9.5
2017-Oct-13 00:00N 42°23' W 070°54'5 9.7
2017-Oct-12 23:30N 42°20' W 070°59'4 7.2
2017-Oct-12 23:00N 42°22' W 071°03'2 3.0
2017-Oct-12 22:30N 42°23' W 071°01'0 0.7
2017-Oct-12 22:00N 42°24' W 071°01'0 0.0
2017-Oct-12 12:09N 42°24' W 071°01'0 0.0
2017-Oct-12 12:00N 42°24' W 071°01'0 0.0
2017-Oct-12 11:30N 42°24' W 071°01'0 0.6
2017-Oct-12 11:00N 42°24' W 071°01'0 0.0
2017-Oct-11 22:04N 42°24' W 071°01'0 0.0
2017-Oct-11 22:00N 42°24' W 071°01'0 0.0
2017-Oct-11 21:30N 42°24' W 071°01'0 0.0
2017-Oct-11 21:00N 42°24' W 071°01'0 0.0
2017-Oct-11 20:30N 42°24' W 071°01'0 0.3
2017-Oct-11 20:00N 42°24' W 071°01'1 2.5
2017-Oct-11 19:30N 42°23' W 071°02'2 3.4
2017-Oct-11 19:00N 42°21' W 071°02'0 0.1
2017-Oct-11 18:30N 42°22' W 071°02'0 0.0
2017-Oct-11 18:00N 42°22' W 071°02'0 0.1
2017-Oct-11 17:30N 42°21' W 071°02'0 0.0
2017-Oct-11 17:00N 42°21' W 071°02'100 5.9
2017-Oct-11 00:00N 41°08' W 072°33'5910.4
2017-Oct-10 18:21N 40°49' W 073°47'3 7.8
2017-Oct-10 18:00N 40°48' W 073°50'4 8.6
2017-Oct-10 17:30N 40°47' W 073°56'3 7.2
2017-Oct-10 17:00N 40°44' W 073°58'4 7.8
2017-Oct-10 16:30N 40°41' W 074°01'3 6.5
2017-Oct-10 16:00N 40°39' W 074°05'0 0.3
2017-Oct-10 15:30N 40°39' W 074°05'0 0.0
2017-Oct-10 14:37N 40°39' W 074°05'1 0.3
2017-Oct-10 11:47N 40°39' W 074°06'0 0.0
2017-Oct-10 10:41N 40°39' W 074°06'0 0.0
2017-Oct-10 10:11N 40°39' W 074°06'0 0.0
2017-Oct-10 09:50N 40°39' W 074°06'1 2.5
2017-Oct-10 09:30N 40°39' W 074°07'0 0.0
2017-Oct-09 06:02N 40°39' W 074°07'0 0.0
2017-Oct-09 06:00N 40°39' W 074°07'0 0.0
2017-Oct-09 05:30N 40°39' W 074°07'0 0.0
2017-Oct-09 04:54N 40°39' W 074°07'0 0.0
2017-Oct-09 04:28N 40°39' W 074°07'0 0.0
2017-Oct-09 04:00N 40°39' W 074°07'1 2.8
2017-Oct-09 03:30N 40°39' W 074°05'0 0.8
2017-Oct-09 03:00N 40°39' W 074°05'0 0.0
2017-Oct-09 02:30N 40°39' W 074°05'1 1.9
2017-Oct-09 02:00N 40°39' W 074°04'1 2.2
2017-Oct-09 01:30N 40°40' W 074°03'0 0.1
2017-Oct-09 01:00N 40°40' W 074°03'0 0.0
2017-Oct-09 00:30N 40°40' W 074°03'0 0.2
2017-Oct-09 00:00N 40°40' W 074°03'0 0.1
2017-Oct-08 23:30N 40°40' W 074°03'0 0.1
2017-Oct-08 23:00N 40°40' W 074°03'0 0.0
2017-Oct-08 22:30N 40°40' W 074°03'0 0.0
2017-Oct-08 22:00N 40°40' W 074°03'0 0.0
2017-Oct-08 21:30N 40°40' W 074°03'0 0.7
2017-Oct-08 21:00N 40°39' W 074°03'1 1.7
2017-Oct-08 20:30N 40°39' W 074°04'1 2.0
2017-Oct-08 19:56N 40°39' W 074°03'0 0.1
2017-Oct-08 19:29N 40°40' W 074°03'0 0.1
2017-Oct-08 18:59N 40°40' W 074°03'0 0.0
2017-Oct-08 18:29N 40°40' W 074°03'0 0.0
2017-Oct-08 17:56N 40°40' W 074°03'0 0.3
2017-Oct-08 17:29N 40°40' W 074°03'0 0.2
2017-Oct-08 16:59N 40°40' W 074°03'0 0.0
2017-Oct-08 16:30N 40°40' W 074°03'0 0.0
2017-Oct-08 16:00N 40°40' W 074°03'0 0.0
2017-Oct-08 15:30N 40°40' W 074°03'0 0.0
2017-Oct-08 15:00N 40°40' W 074°03'0 0.0
2017-Oct-08 14:30N 40°40' W 074°03'0 0.0
2017-Oct-08 14:00N 40°40' W 074°03'0 0.1
2017-Oct-08 13:30N 40°40' W 074°03'0 0.0
2017-Oct-08 13:00N 40°40' W 074°03'0 0.1
2017-Oct-08 12:30N 40°40' W 074°03'1 2.0
2017-Oct-08 12:00N 40°39' W 074°04'3 6.0
2017-Oct-08 11:30N 40°39' W 074°08'3 6.2
2017-Oct-08 11:00N 40°38' W 074°12'3 0.2
2017-Oct-07 16:14N 40°35' W 074°12'0 0.0
2017-Oct-07 16:00N 40°35' W 074°12'0 0.0
2017-Oct-07 15:28N 40°35' W 074°12'0 0.3
2017-Oct-07 14:56N 40°35' W 074°12'2 4.5
2017-Oct-07 14:29N 40°33' W 074°14'4 3.9
2017-Oct-07 13:27N 40°30' W 074°10'510.2
2017-Oct-07 13:00N 40°29' W 074°04'4 7.7
2017-Oct-07 12:30N 40°29' W 073°59'4 7.2
2017-Oct-07 11:54N 40°26' W 073°55'3 6.9
2017-Oct-07 11:28N 40°23' W 073°54'9 6.9
2017-Oct-07 10:11N 40°14' W 073°55'2 6.7
2017-Oct-07 09:56N 40°12' W 073°55'3 6.7
2017-Oct-07 09:30N 40°10' W 073°55'4 7.1
2017-Oct-07 08:57N 40°06' W 073°56'3 6.1
2017-Oct-07 08:30N 40°03' W 073°56'510.3
2017-Oct-07 08:00N 39°58' W 073°57'610.3
2017-Oct-07 07:26N 39°52' W 073°58'410.2
2017-Oct-07 07:00N 39°48' W 073°58'510.2
2017-Oct-07 06:30N 39°43' W 074°00'  

Dump ship's entire track history